Etusivu
METAR-TAF:

METAR-TAF

Lentoasemat :

Anadyr, Venäjä

Leveyspiiri: 64-47N, Pituuspiiri: 177-34E, korkeus merenpinnasta: 62 m

Tämänhetkinen sää

Tämä raportti tehtiin 21 minuuttia sitten, kello 20.30 UTC
Tuuli 6 kn pohjoisesta
Lämpötila 12°C
Kosteus 71%
Ilmanpaine 1022 hPa
Näkyvyys 10 km tai enemmän
ei pilviä alle 1500 m:ssä eikä cumulonimbus-pilviä

METAR: UHMA 202030Z 35003MPS CAVOK 12/07 Q1022 R01/60D NOSIG RMK TDZ R01/35003G05MPS END R01/01003G05MPS QFE763/1017

Aika: 08:51 (20:51 UTC)

Sääennuste

Tämä raportti tehtiin 1 tunti ja 13 minuuttia sitten, kello 19.38 UTC
Ennuste voimassa 20. päivästä klo 21 UTC - 21. päivään klo 21 UTC
Tuuli 6 kn luoteesta puuskistuen 16 kn:hen
Näkyvyys 10 km tai enemmän
Hajanaisia pilviä 3000 ft:n korkeudessa
Ajoittain
20. päivästä klo 21 UTC - 21. päivään klo 21 UTC
Tuuli 12 kn lännestä

TAF: UHMA 201938Z 2021/2121 32003G08MPS 9999 SCT030 TEMPO 2021/2121 26006MPS

Säähavainnot ja -ennusteet yli 4000 lentoasemalta (METAR- ja TAF-raportit).

Käytössä olevat sääasemat on merkitty karttaan keltaisilla ja punaisilla pisteillä.

Aseta hiiri pisteen päälle nähdäksesi sääaseman nimen.

Klikkaa sitten nähdäksesi säähavainnot ja -ennusteet.

Kartan vaihtaminen: klikkaa mustalla rastilla varustettuja vihreitä pisteitä, niin voit zoomata sisään; viivalla varustettua vihreää pistettä, niin voit zoomata ulos tai vihreitä nuolia, niin pääset viereisille kartoille.


METAR-TAF: